createdAt,value
2023-04-05T00:10:31.864Z,54.94
2023-04-05T00:20:54.045Z,55.01
2023-04-05T00:31:15.550Z,54.57
2023-04-05T00:41:36.924Z,54.85
2023-04-05T00:51:59.170Z,54.75
2023-04-05T01:02:29.136Z,55.18
2023-04-05T01:12:51.010Z,54.97
2023-04-05T01:23:37.923Z,54.67
2023-04-05T01:34:08.900Z,54.61
2023-04-05T01:44:29.981Z,54.70
2023-04-05T01:54:51.516Z,55.16
2023-04-05T02:05:12.893Z,54.98
2023-04-05T02:15:34.444Z,55.12
2023-04-05T02:25:55.572Z,54.72
2023-04-05T02:36:18.886Z,54.80
2023-04-05T02:46:41.114Z,55.19
2023-04-05T02:57:02.636Z,55.12
2023-04-05T03:07:33.554Z,54.93
2023-04-05T03:17:59.146Z,55.04
2023-04-05T03:28:21.641Z,54.61
2023-04-05T03:38:46.867Z,55.24
2023-04-05T03:49:13.243Z,55.21
2023-04-05T03:59:34.878Z,54.90
2023-04-05T04:09:58.778Z,54.77
2023-04-05T04:21:11.007Z,54.63
2023-04-05T04:31:51.023Z,55.28
2023-04-05T04:42:50.675Z,54.75
2023-04-05T04:53:30.206Z,54.67
2023-04-05T05:03:54.306Z,54.45
2023-04-05T05:14:28.531Z,54.69
2023-04-05T05:24:49.542Z,54.64
2023-04-05T05:35:10.854Z,54.58
2023-04-05T05:45:33.029Z,54.98
2023-04-05T05:55:54.579Z,55.14
2023-04-05T06:06:15.887Z,55.57
2023-04-05T06:16:37.352Z,54.79
2023-04-05T06:26:59.670Z,54.81
2023-04-05T06:37:20.850Z,54.46
2023-04-05T06:47:42.847Z,54.80
2023-04-05T06:58:04.266Z,54.45
2023-04-05T07:08:26.907Z,55.04
2023-04-05T07:18:48.211Z,54.15
2023-04-05T07:29:10.486Z,54.39
2023-04-05T07:39:32.013Z,54.54
2023-04-05T07:49:53.291Z,53.77
2023-04-05T08:00:15.793Z,54.17
2023-04-05T08:10:40.996Z,53.69
2023-04-05T08:21:02.720Z,53.43
2023-04-05T08:31:23.990Z,53.41
2023-04-05T08:42:08.397Z,53.57
2023-04-05T08:52:31.518Z,53.67
2023-04-05T09:02:57.877Z,53.30
2023-04-05T09:13:19.791Z,53.12
2023-04-05T09:23:52.699Z,53.77
2023-04-05T09:34:21.399Z,53.63
2023-04-05T09:44:54.303Z,52.88
2023-04-05T09:55:27.035Z,54.05
2023-04-05T10:05:56.130Z,53.40
2023-04-05T10:16:21.946Z,53.07
2023-04-05T10:26:56.886Z,53.64
2023-04-05T10:37:38.850Z,53.39
2023-04-05T10:48:11.498Z,53.92
2023-04-05T10:58:33.233Z,52.95
2023-04-05T11:09:08.603Z,52.75
2023-04-05T11:19:47.672Z,53.35
2023-04-05T11:30:09.612Z,53.86
2023-04-05T11:40:32.922Z,53.54
2023-04-05T11:50:54.665Z,53.26
2023-04-05T12:01:16.081Z,52.51
2023-04-05T12:11:39.153Z,52.47
2023-04-05T12:22:00.255Z,52.65
2023-04-05T12:32:22.813Z,52.89
2023-04-05T12:42:46.175Z,52.07
2023-04-05T12:53:07.669Z,52.12
2023-04-05T13:03:29.071Z,52.63
2023-04-05T13:13:50.835Z,53.12
2023-04-05T13:24:13.005Z,53.22
2023-04-05T13:34:34.453Z,52.76
2023-04-05T13:44:55.460Z,52.67
2023-04-05T13:55:16.511Z,52.57
2023-04-05T14:05:37.553Z,52.85
2023-04-05T14:15:58.738Z,52.82
2023-04-05T14:26:19.620Z,53.02
2023-04-05T14:36:41.391Z,52.49
2023-04-05T14:47:02.620Z,52.59
2023-04-05T14:57:24.052Z,52.66
2023-04-05T15:07:45.419Z,52.88
2023-04-05T15:18:08.540Z,53.28
2023-04-05T15:28:29.705Z,53.89
2023-04-05T15:38:51.259Z,53.58
2023-04-05T15:49:14.703Z,54.00
2023-04-05T15:59:36.907Z,53.80
2023-04-05T16:09:58.102Z,53.85
2023-04-05T16:20:19.224Z,53.51
2023-04-05T16:30:40.406Z,53.41
2023-04-05T16:41:02.549Z,53.75
2023-04-05T16:51:23.862Z,54.24
2023-04-05T17:01:44.974Z,54.09
2023-04-05T17:12:06.425Z,54.48
2023-04-05T17:22:27.408Z,54.60
2023-04-05T17:32:48.756Z,54.54
2023-04-05T17:43:11.121Z,54.79
2023-04-05T17:53:32.239Z,54.41
2023-04-05T18:03:53.506Z,54.89
2023-04-05T18:14:14.614Z,54.31
2023-04-05T18:24:35.889Z,54.21
2023-04-05T18:34:56.842Z,54.67
2023-04-05T18:45:18.153Z,54.11
2023-04-05T18:55:39.633Z,53.68
2023-04-05T19:06:00.796Z,54.13
2023-04-05T19:16:21.791Z,53.67
2023-04-05T19:26:43.966Z,53.84
2023-04-05T19:37:05.013Z,53.90
2023-04-05T19:47:26.659Z,53.60
2023-04-05T19:57:47.776Z,53.26
2023-04-05T20:08:09.033Z,53.72
2023-04-05T20:18:30.390Z,53.29
2023-04-05T20:28:55.428Z,53.54
2023-04-05T20:39:17.100Z,53.69
2023-04-05T20:49:38.322Z,53.40
2023-04-05T21:00:02.368Z,54.23
2023-04-05T21:10:23.558Z,54.27
2023-04-05T21:20:50.765Z,54.07
2023-04-05T21:31:12.002Z,54.22
2023-04-05T21:41:33.464Z,54.36
2023-04-05T21:51:54.495Z,54.40
2023-04-05T22:02:15.306Z,54.82
2023-04-05T22:12:36.632Z,54.57
2023-04-05T22:22:57.850Z,54.14
2023-04-05T22:33:18.834Z,54.01
2023-04-05T22:43:40.122Z,54.67
2023-04-05T22:54:01.602Z,54.16
2023-04-05T23:04:23.796Z,54.00
2023-04-05T23:14:45.218Z,54.89
2023-04-05T23:25:07.356Z,54.98
2023-04-05T23:35:28.801Z,54.75
2023-04-05T23:45:50.559Z,54.87
2023-04-05T23:56:12.147Z,54.54
